sensor_id;sensor_type;location;lat;lon;timestamp;pressure;altitude;pressure_sealevel;temperature;humidity
84020;BME280;74102;49.084;13.694;2023-12-07T00:01:21;93325.63;;;0.43;75.33
84020;BME280;74102;49.084;13.694;2023-12-07T00:03:46;93327.50;;;0.41;75.00
84020;BME280;74102;49.084;13.694;2023-12-07T00:06:11;93330.09;;;0.41;74.94
84020;BME280;74102;49.084;13.694;2023-12-07T00:08:37;93326.00;;;0.38;74.86
84020;BME280;74102;49.084;13.694;2023-12-07T00:11:02;93322.59;;;0.38;74.82
84020;BME280;74102;49.084;13.694;2023-12-07T00:13:28;93337.06;;;0.39;75.01
84020;BME280;74102;49.084;13.694;2023-12-07T00:15:53;93327.75;;;0.38;75.20
84020;BME280;74102;49.084;13.694;2023-12-07T00:18:18;93328.75;;;0.35;74.87
84020;BME280;74102;49.084;13.694;2023-12-07T00:20:44;93330.41;;;0.36;75.26
84020;BME280;74102;49.084;13.694;2023-12-07T00:23:10;93337.06;;;0.39;74.97
84020;BME280;74102;49.084;13.694;2023-12-07T00:25:35;93334.28;;;0.42;74.93
84020;BME280;74102;49.084;13.694;2023-12-07T00:28:01;93335.94;;;0.43;74.84
84020;BME280;74102;49.084;13.694;2023-12-07T00:30:26;93337.81;;;0.41;74.65
84020;BME280;74102;49.084;13.694;2023-12-07T00:32:51;93341.06;;;0.43;75.04
84020;BME280;74102;49.084;13.694;2023-12-07T00:35:17;93339.41;;;0.42;74.85
84020;BME280;74102;49.084;13.694;2023-12-07T00:37:43;93341.91;;;0.43;74.32
84020;BME280;74102;49.084;13.694;2023-12-07T00:40:09;93338.63;;;0.41;74.50
84020;BME280;74102;49.084;13.694;2023-12-07T00:42:34;93341.06;;;0.43;74.81
84020;BME280;74102;49.084;13.694;2023-12-07T00:45:00;93335.94;;;0.43;74.76
84020;BME280;74102;49.084;13.694;2023-12-07T00:47:25;93337.44;;;0.45;74.49
84020;BME280;74102;49.084;13.694;2023-12-07T00:49:50;93339.09;;;0.46;74.69
84020;BME280;74102;49.084;13.694;2023-12-07T00:52:16;93335.81;;;0.44;74.37
84020;BME280;74102;49.084;13.694;2023-12-07T00:54:41;93336.16;;;0.40;75.00
84020;BME280;74102;49.084;13.694;2023-12-07T00:57:07;93343.16;;;0.38;74.76
84020;BME280;74102;49.084;13.694;2023-12-07T00:59:32;93329.81;;;0.33;74.85
84020;BME280;74102;49.084;13.694;2023-12-07T01:02:04;93334.34;;;0.29;74.79
84020;BME280;74102;49.084;13.694;2023-12-07T01:04:30;93334.47;;;0.28;74.95
84020;BME280;74102;49.084;13.694;2023-12-07T01:06:56;93331.91;;;0.28;75.00
84020;BME280;74102;49.084;13.694;2023-12-07T01:09:22;93342.06;;;0.29;75.02
84020;BME280;74102;49.084;13.694;2023-12-07T01:11:48;93344.03;;;0.26;75.33
84020;BME280;74102;49.084;13.694;2023-12-07T01:14:14;93358.56;;;0.27;74.79
84020;BME280;74102;49.084;13.694;2023-12-07T01:16:40;93356.81;;;0.27;74.39
84020;BME280;74102;49.084;13.694;2023-12-07T01:19:05;93354.31;;;0.26;75.02
84020;BME280;74102;49.084;13.694;2023-12-07T01:21:32;93354.56;;;0.23;75.24
84020;BME280;74102;49.084;13.694;2023-12-07T01:23:57;93352.94;;;0.22;74.97
84020;BME280;74102;49.084;13.694;2023-12-07T01:26:23;93357.84;;;0.25;75.06
84020;BME280;74102;49.084;13.694;2023-12-07T01:28:49;93356.19;;;0.24;74.68
84020;BME280;74102;49.084;13.694;2023-12-07T01:31:14;93369.28;;;0.21;75.15
84020;BME280;74102;49.084;13.694;2023-12-07T01:33:39;93364.03;;;0.22;74.80
84020;BME280;74102;49.084;13.694;2023-12-07T01:36:05;93363.91;;;0.24;74.62
84020;BME280;74102;49.084;13.694;2023-12-07T01:38:30;93363.22;;;0.22;75.24
84020;BME280;74102;49.084;13.694;2023-12-07T01:40:56;93365.88;;;0.20;75.28
84020;BME280;74102;49.084;13.694;2023-12-07T01:43:22;93369.19;;;0.22;75.22
84020;BME280;74102;49.084;13.694;2023-12-07T01:45:49;93368.00;;;0.26;74.94
84020;BME280;74102;49.084;13.694;2023-12-07T01:48:19;93370.50;;;0.28;75.19
84020;BME280;74102;49.084;13.694;2023-12-07T01:50:45;93364.44;;;0.29;74.81
84020;BME280;74102;49.084;13.694;2023-12-07T01:53:11;93374.72;;;0.29;74.43
84020;BME280;74102;49.084;13.694;2023-12-07T01:55:37;93371.19;;;0.30;74.40
84020;BME280;74102;49.084;13.694;2023-12-07T01:58:04;93371.19;;;0.30;74.84
84020;BME280;74102;49.084;13.694;2023-12-07T02:00:29;93368.50;;;0.31;74.93
84020;BME280;74102;49.084;13.694;2023-12-07T02:02:55;93373.53;;;0.33;74.61
84020;BME280;74102;49.084;13.694;2023-12-07T02:05:21;93375.06;;;0.35;74.53
84020;BME280;74102;49.084;13.694;2023-12-07T02:07:47;93375.44;;;0.42;74.34
84020;BME280;74102;49.084;13.694;2023-12-07T02:10:13;93377.59;;;0.48;74.43
84020;BME280;74102;49.084;13.694;2023-12-07T02:12:41;93378.28;;;0.50;74.37
84020;BME280;74102;49.084;13.694;2023-12-07T02:15:07;93378.06;;;0.53;74.25
84020;BME280;74102;49.084;13.694;2023-12-07T02:17:36;93373.84;;;0.52;73.45
84020;BME280;74102;49.084;13.694;2023-12-07T02:20:14;93376.63;;;0.49;73.92
84020;BME280;74102;49.084;13.694;2023-12-07T02:22:51;93372.31;;;0.49;74.20
84020;BME280;74102;49.084;13.694;2023-12-07T02:25:18;93382.50;;;0.51;73.71
84020;BME280;74102;49.084;13.694;2023-12-07T02:27:47;93380.16;;;0.48;73.40
84020;BME280;74102;49.084;13.694;2023-12-07T02:30:14;93383.44;;;0.50;73.89
84020;BME280;74102;49.084;13.694;2023-12-07T02:32:44;93387.97;;;0.46;73.79
84020;BME280;74102;49.084;13.694;2023-12-07T02:35:10;93389.03;;;0.44;73.79
84020;BME280;74102;49.084;13.694;2023-12-07T02:37:44;93383.88;;;0.44;74.06
84020;BME280;74102;49.084;13.694;2023-12-07T02:40:11;93386.56;;;0.42;74.03
84020;BME280;74102;49.084;13.694;2023-12-07T02:42:40;93389.03;;;0.44;74.20
84020;BME280;74102;49.084;13.694;2023-12-07T02:45:07;93387.97;;;0.46;74.27
84020;BME280;74102;49.084;13.694;2023-12-07T02:47:33;93395.00;;;0.44;73.89
84020;BME280;74102;49.084;13.694;2023-12-07T02:49:58;93392.75;;;0.40;74.09
84020;BME280;74102;49.084;13.694;2023-12-07T02:52:24;93397.19;;;0.38;74.60
84020;BME280;74102;49.084;13.694;2023-12-07T02:54:49;93392.97;;;0.37;74.64
84020;BME280;74102;49.084;13.694;2023-12-07T02:57:14;93394.00;;;0.34;74.90
84020;BME280;74102;49.084;13.694;2023-12-07T02:59:40;93396.47;;;0.36;74.60
84020;BME280;74102;49.084;13.694;2023-12-07T03:02:06;93404.19;;;0.36;75.00
84020;BME280;74102;49.084;13.694;2023-12-07T03:04:32;93404.41;;;0.33;75.56
84020;BME280;74102;49.084;13.694;2023-12-07T03:06:57;93410.50;;;0.32;75.29
84020;BME280;74102;49.084;13.694;2023-12-07T03:09:23;93411.50;;;0.29;75.48
84020;BME280;74102;49.084;13.694;2023-12-07T03:11:48;93419.84;;;0.33;75.09
84020;BME280;74102;49.084;13.694;2023-12-07T03:14:13;93420.78;;;0.32;74.67
84020;BME280;74102;49.084;13.694;2023-12-07T03:16:39;93424.06;;;0.34;74.97
84020;BME280;74102;49.084;13.694;2023-12-07T03:19:04;93419.50;;;0.37;74.70
84020;BME280;74102;49.084;13.694;2023-12-07T03:21:30;93423.84;;;0.37;75.08
84020;BME280;74102;49.084;13.694;2023-12-07T03:23:56;93429.59;;;0.40;74.82
84020;BME280;74102;49.084;13.694;2023-12-07T03:26:21;93418.25;;;0.43;74.56
84020;BME280;74102;49.084;13.694;2023-12-07T03:28:46;93418.75;;;0.48;74.97
84020;BME280;74102;49.084;13.694;2023-12-07T03:31:12;93416.66;;;0.53;75.09
84020;BME280;74102;49.084;13.694;2023-12-07T03:33:37;93427.66;;;0.55;74.11
84020;BME280;74102;49.084;13.694;2023-12-07T03:36:04;93423.44;;;0.54;74.24
84020;BME280;74102;49.084;13.694;2023-12-07T03:38:30;93432.09;;;0.53;74.23
84020;BME280;74102;49.084;13.694;2023-12-07T03:40:55;93436.75;;;0.48;74.02
84020;BME280;74102;49.084;13.694;2023-12-07T03:43:21;93434.28;;;0.46;74.43
84020;BME280;74102;49.084;13.694;2023-12-07T03:45:46;93439.66;;;0.43;74.09
84020;BME280;74102;49.084;13.694;2023-12-07T03:48:12;93446.66;;;0.41;74.39
84020;BME280;74102;49.084;13.694;2023-12-07T03:50:37;93443.97;;;0.43;74.01
84020;BME280;74102;49.084;13.694;2023-12-07T03:53:03;93445.50;;;0.45;74.12
84020;BME280;74102;49.084;13.694;2023-12-07T03:55:28;93449.72;;;0.46;74.53
84020;BME280;74102;49.084;13.694;2023-12-07T03:57:53;93454.03;;;0.46;74.22
84020;BME280;74102;49.084;13.694;2023-12-07T04:00:19;93446.22;;;0.47;74.43
84020;BME280;74102;49.084;13.694;2023-12-07T04:02:44;93450.53;;;0.47;74.38
84020;BME280;74102;49.084;13.694;2023-12-07T04:05:10;93453.22;;;0.45;74.66
84020;BME280;74102;49.084;13.694;2023-12-07T04:07:36;93456.00;;;0.42;74.18
84020;BME280;74102;49.084;13.694;2023-12-07T04:10:01;93465.47;;;0.42;74.76
84020;BME280;74102;49.084;13.694;2023-12-07T04:12:27;93459.63;;;0.40;74.47
84020;BME280;74102;49.084;13.694;2023-12-07T04:14:52;93463.13;;;0.39;74.60
84020;BME280;74102;49.084;13.694;2023-12-07T04:17:18;93461.38;;;0.39;74.70
84020;BME280;74102;49.084;13.694;2023-12-07T04:19:43;93468.25;;;0.39;74.55
84020;BME280;74102;49.084;13.694;2023-12-07T04:22:08;93474.13;;;0.41;74.65
84020;BME280;74102;49.084;13.694;2023-12-07T04:24:34;93473.41;;;0.39;74.45
84020;BME280;74102;49.084;13.694;2023-12-07T04:26:59;93480.19;;;0.40;74.50
84020;BME280;74102;49.084;13.694;2023-12-07T04:29:24;93481.03;;;0.40;74.97
84020;BME280;74102;49.084;13.694;2023-12-07T04:31:50;93481.72;;;0.42;74.64
84020;BME280;74102;49.084;13.694;2023-12-07T04:34:15;93466.19;;;0.44;74.89
84020;BME280;74102;49.084;13.694;2023-12-07T04:36:40;93484.22;;;0.44;74.74
84020;BME280;74102;49.084;13.694;2023-12-07T04:39:06;93473.19;;;0.42;74.79
84020;BME280;74102;49.084;13.694;2023-12-07T04:41:31;93475.56;;;0.45;74.54
84020;BME280;74102;49.084;13.694;2023-12-07T04:43:57;93485.75;;;0.46;74.76
84020;BME280;74102;49.084;13.694;2023-12-07T04:46:22;93486.78;;;0.44;74.48
84020;BME280;74102;49.084;13.694;2023-12-07T04:48:47;93493.66;;;0.43;74.34
84020;BME280;74102;49.084;13.694;2023-12-07T04:51:13;93488.63;;;0.42;74.27
84020;BME280;74102;49.084;13.694;2023-12-07T04:53:38;93488.44;;;0.45;74.41
84020;BME280;74102;49.084;13.694;2023-12-07T04:56:04;93489.84;;;0.49;74.72
84020;BME280;74102;49.084;13.694;2023-12-07T04:58:30;93487.66;;;0.56;74.51
84020;BME280;74102;49.084;13.694;2023-12-07T05:00:55;93506.72;;;0.53;73.76
84020;BME280;74102;49.084;13.694;2023-12-07T05:03:21;93495.09;;;0.47;74.13
84020;BME280;74102;49.084;13.694;2023-12-07T05:05:46;93494.97;;;0.49;74.34
84020;BME280;74102;49.084;13.694;2023-12-07T05:08:13;93496.63;;;0.50;73.91
84020;BME280;74102;49.084;13.694;2023-12-07T05:10:38;93500.34;;;0.46;73.93
84020;BME280;74102;49.084;13.694;2023-12-07T05:13:03;93497.91;;;0.44;74.34
84020;BME280;74102;49.084;13.694;2023-12-07T05:15:29;93495.19;;;0.46;73.68
84020;BME280;74102;49.084;13.694;2023-12-07T05:17:54;93499.44;;;0.47;73.92
84020;BME280;74102;49.084;13.694;2023-12-07T05:20:20;93494.28;;;0.47;73.58
84020;BME280;74102;49.084;13.694;2023-12-07T05:22:48;93502.81;;;0.47;74.09
84020;BME280;74102;49.084;13.694;2023-12-07T05:25:13;93509.59;;;0.48;73.86
84020;BME280;74102;49.084;13.694;2023-12-07T05:27:38;93505.28;;;0.49;73.64
84020;BME280;74102;49.084;13.694;2023-12-07T05:30:04;93503.44;;;0.51;73.27
84020;BME280;74102;49.084;13.694;2023-12-07T05:32:30;93511.84;;;0.53;73.39
84020;BME280;74102;49.084;13.694;2023-12-07T05:34:55;93501.78;;;0.50;73.16
84020;BME280;74102;49.084;13.694;2023-12-07T05:37:20;93502.00;;;0.47;73.01
84020;BME280;74102;49.084;13.694;2023-12-07T05:39:46;93500.34;;;0.46;73.14
84020;BME280;74102;49.084;13.694;2023-12-07T05:42:11;93506.53;;;0.43;72.52
84020;BME280;74102;49.084;13.694;2023-12-07T05:44:36;93510.03;;;0.42;73.02
84020;BME280;74102;49.084;13.694;2023-12-07T05:47:02;93516.00;;;0.43;73.11
84020;BME280;74102;49.084;13.694;2023-12-07T05:49:27;93518.69;;;0.41;72.90
84020;BME280;74102;49.084;13.694;2023-12-07T05:51:53;93514.16;;;0.45;72.99
84020;BME280;74102;49.084;13.694;2023-12-07T05:54:18;93514.88;;;0.47;73.25
84020;BME280;74102;49.084;13.694;2023-12-07T05:56:45;93523.41;;;0.47;72.93
84020;BME280;74102;49.084;13.694;2023-12-07T05:59:11;93524.31;;;0.46;72.59
84020;BME280;74102;49.084;13.694;2023-12-07T06:01:37;93522.56;;;0.47;72.67
84020;BME280;74102;49.084;13.694;2023-12-07T06:04:02;93526.91;;;0.46;72.95
84020;BME280;74102;49.084;13.694;2023-12-07T06:06:27;93522.56;;;0.47;73.09
84020;BME280;74102;49.084;13.694;2023-12-07T06:08:53;93517.53;;;0.45;73.10
84020;BME280;74102;49.084;13.694;2023-12-07T06:11:19;93522.78;;;0.44;72.40
84020;BME280;74102;49.084;13.694;2023-12-07T06:13:44;93524.44;;;0.45;72.65
84020;BME280;74102;49.084;13.694;2023-12-07T06:16:12;93525.38;;;0.44;72.66
84020;BME280;74102;49.084;13.694;2023-12-07T06:18:38;93526.50;;;0.40;72.43
84020;BME280;74102;49.084;13.694;2023-12-07T06:21:04;93533.94;;;0.32;72.68
84020;BME280;74102;49.084;13.694;2023-12-07T06:23:29;93527.97;;;0.31;72.53
84020;BME280;74102;49.084;13.694;2023-12-07T06:25:55;93527.84;;;0.33;73.01
84020;BME280;74102;49.084;13.694;2023-12-07T06:28:20;93541.44;;;0.35;72.86
84020;BME280;74102;49.084;13.694;2023-12-07T06:30:45;93537.72;;;0.39;72.79
84020;BME280;74102;49.084;13.694;2023-12-07T06:33:11;93536.56;;;0.43;72.76
84020;BME280;74102;49.084;13.694;2023-12-07T06:35:36;93536.56;;;0.43;72.46
84020;BME280;74102;49.084;13.694;2023-12-07T06:38:02;93540.06;;;0.42;72.87
84020;BME280;74102;49.084;13.694;2023-12-07T06:40:27;93549.66;;;0.40;73.52
84020;BME280;74102;49.084;13.694;2023-12-07T06:42:52;93551.41;;;0.39;73.32
84020;BME280;74102;49.084;13.694;2023-12-07T06:45:18;93561.81;;;0.38;73.71
84020;BME280;74102;49.084;13.694;2023-12-07T06:47:43;93564.59;;;0.35;74.13
84020;BME280;74102;49.084;13.694;2023-12-07T06:50:09;93553.69;;;0.31;74.20
84020;BME280;74102;49.084;13.694;2023-12-07T06:52:35;93558.31;;;0.26;73.65
84020;BME280;74102;49.084;13.694;2023-12-07T06:55:01;93562.47;;;0.29;74.23
84020;BME280;74102;49.084;13.694;2023-12-07T06:57:26;93569.63;;;0.36;73.80
84020;BME280;74102;49.084;13.694;2023-12-07T06:59:53;93560.66;;;0.42;74.26
84020;BME280;74102;49.084;13.694;2023-12-07T07:02:18;93566.63;;;0.42;73.44
84020;BME280;74102;49.084;13.694;2023-12-07T07:04:43;93563.97;;;0.44;73.98
84020;BME280;74102;49.084;13.694;2023-12-07T07:07:09;93573.13;;;0.48;73.55
84020;BME280;74102;49.084;13.694;2023-12-07T07:09:36;93573.59;;;0.53;73.58
84020;BME280;74102;49.084;13.694;2023-12-07T07:12:01;93570.72;;;0.58;74.05
84020;BME280;74102;49.084;13.694;2023-12-07T07:14:26;93568.94;;;0.58;73.32
84020;BME280;74102;49.084;13.694;2023-12-07T07:16:52;93569.88;;;0.57;72.99
84020;BME280;74102;49.084;13.694;2023-12-07T07:19:17;93568.25;;;0.56;72.54
84020;BME280;74102;49.084;13.694;2023-12-07T07:21:43;93567.19;;;0.59;73.10
84020;BME280;74102;49.084;13.694;2023-12-07T07:24:09;93569.34;;;0.65;72.23
84020;BME280;74102;49.084;13.694;2023-12-07T07:26:34;93569.25;;;0.66;72.53
84020;BME280;74102;49.084;13.694;2023-12-07T07:29:00;93574.03;;;0.71;72.42
84020;BME280;74102;49.084;13.694;2023-12-07T07:31:25;93573.94;;;0.72;72.48
84020;BME280;74102;49.084;13.694;2023-12-07T07:33:50;93571.59;;;0.69;71.69
84020;BME280;74102;49.084;13.694;2023-12-07T07:36:16;93577.44;;;0.71;72.24
84020;BME280;74102;49.084;13.694;2023-12-07T07:38:42;93574.16;;;0.69;71.72
84020;BME280;74102;49.084;13.694;2023-12-07T07:41:09;93571.84;;;0.77;72.05
84020;BME280;74102;49.084;13.694;2023-12-07T07:43:34;93574.59;;;0.87;72.29
84020;BME280;74102;49.084;13.694;2023-12-07T07:46:00;93569.13;;;0.91;72.18
84020;BME280;74102;49.084;13.694;2023-12-07T07:48:26;93573.84;;;0.97;71.88
84020;BME280;74102;49.084;13.694;2023-12-07T07:50:51;93576.72;;;1.05;71.54
84020;BME280;74102;49.084;13.694;2023-12-07T07:53:17;93579.06;;;1.09;70.98
84020;BME280;74102;49.084;13.694;2023-12-07T07:55:42;93575.00;;;1.17;71.24
84020;BME280;74102;49.084;13.694;2023-12-07T07:58:08;93583.53;;;1.18;71.47
84020;BME280;74102;49.084;13.694;2023-12-07T08:00:33;93581.78;;;1.18;70.67
84020;BME280;74102;49.084;13.694;2023-12-07T08:02:59;93582.63;;;1.19;70.72
84020;BME280;74102;49.084;13.694;2023-12-07T08:05:25;93574.63;;;1.11;70.01
84020;BME280;74102;49.084;13.694;2023-12-07T08:07:51;93583.03;;;1.13;69.77
84020;BME280;74102;49.084;13.694;2023-12-07T08:10:16;93583.53;;;1.18;69.17
84020;BME280;74102;49.084;13.694;2023-12-07T08:12:42;93579.59;;;1.25;69.45
84020;BME280;74102;49.084;13.694;2023-12-07T08:15:09;93585.22;;;1.30;69.17
84020;BME280;74102;49.084;13.694;2023-12-07T08:17:44;93583.16;;;1.35;69.36
84020;BME280;74102;49.084;13.694;2023-12-07T08:20:10;93581.50;;;1.34;68.53
84020;BME280;74102;49.084;13.694;2023-12-07T08:22:39;93585.72;;;1.35;68.34
84020;BME280;74102;49.084;13.694;2023-12-07T08:25:06;93582.44;;;1.33;68.53
84020;BME280;74102;49.084;13.694;2023-12-07T08:27:32;93580.56;;;1.35;67.99
84020;BME280;74102;49.084;13.694;2023-12-07T08:29:58;93584.41;;;1.29;66.88
84020;BME280;74102;49.084;13.694;2023-12-07T08:32:24;93584.47;;;1.17;66.31
84020;BME280;74102;49.084;13.694;2023-12-07T08:34:51;93591.22;;;1.06;66.61
84020;BME280;74102;49.084;13.694;2023-12-07T08:37:16;93601.25;;;0.98;67.06
84020;BME280;74102;49.084;13.694;2023-12-07T08:39:42;93591.38;;;0.92;66.82
84020;BME280;74102;49.084;13.694;2023-12-07T08:42:08;93591.16;;;0.95;67.10
84020;BME280;74102;49.084;13.694;2023-12-07T08:44:33;93597.75;;;0.99;66.99
84020;BME280;74102;49.084;13.694;2023-12-07T08:46:59;93598.00;;;1.08;66.73
84020;BME280;74102;49.084;13.694;2023-12-07T08:49:24;93599.91;;;1.17;66.76
84020;BME280;74102;49.084;13.694;2023-12-07T08:51:52;93607.03;;;1.37;66.29
84020;BME280;74102;49.084;13.694;2023-12-07T08:54:18;93606.66;;;1.54;65.85
84020;BME280;74102;49.084;13.694;2023-12-07T08:56:46;93606.44;;;1.68;65.15
84020;BME280;74102;49.084;13.694;2023-12-07T08:59:11;93607.84;;;1.72;64.91
84020;BME280;74102;49.084;13.694;2023-12-07T09:01:37;93607.13;;;1.59;64.21
84020;BME280;74102;49.084;13.694;2023-12-07T09:04:02;93610.84;;;1.55;63.36
84020;BME280;74102;49.084;13.694;2023-12-07T09:06:28;93608.72;;;1.49;63.24
84020;BME280;74102;49.084;13.694;2023-12-07T09:08:54;93612.97;;;1.61;63.14
84020;BME280;74102;49.084;13.694;2023-12-07T09:11:20;93615.47;;;1.74;63.07
84020;BME280;74102;49.084;13.694;2023-12-07T09:13:45;93613.47;;;1.77;62.81
84020;BME280;74102;49.084;13.694;2023-12-07T09:16:11;93611.16;;;1.85;62.04
84020;BME280;74102;49.084;13.694;2023-12-07T09:18:36;93612.69;;;1.88;62.62
84020;BME280;74102;49.084;13.694;2023-12-07T09:21:02;93613.53;;;1.88;63.13
84020;BME280;74102;49.084;13.694;2023-12-07T09:23:28;93611.38;;;1.71;61.74
84020;BME280;74102;49.084;13.694;2023-12-07T09:25:54;93615.31;;;1.64;61.69
84020;BME280;74102;49.084;13.694;2023-12-07T09:28:19;93623.19;;;1.63;61.75
84020;BME280;74102;49.084;13.694;2023-12-07T09:30:45;93621.91;;;1.68;62.31
84020;BME280;74102;49.084;13.694;2023-12-07T09:33:10;93620.63;;;1.74;61.90
84020;BME280;74102;49.084;13.694;2023-12-07T09:35:35;93618.78;;;1.76;62.75
84020;BME280;74102;49.084;13.694;2023-12-07T09:38:01;93624.75;;;1.76;62.20
84020;BME280;74102;49.084;13.694;2023-12-07T09:40:26;93621.56;;;1.73;61.98
84020;BME280;74102;49.084;13.694;2023-12-07T09:42:53;93621.38;;;1.52;61.76
84020;BME280;74102;49.084;13.694;2023-12-07T09:45:19;93616.44;;;1.49;62.10
84020;BME280;74102;49.084;13.694;2023-12-07T09:47:52;93620.69;;;1.50;62.10
84020;BME280;74102;49.084;13.694;2023-12-07T09:50:21;93608.78;;;1.60;61.72
84020;BME280;74102;49.084;13.694;2023-12-07T09:52:50;93609.25;;;1.65;61.93
84020;BME280;74102;49.084;13.694;2023-12-07T09:55:17;93611.38;;;1.71;62.29
84020;BME280;74102;49.084;13.694;2023-12-07T09:57:43;93605.59;;;1.68;61.51
84020;BME280;74102;49.084;13.694;2023-12-07T10:00:11;93607.16;;;1.70;62.26
84020;BME280;74102;49.084;13.694;2023-12-07T10:02:42;93608.47;;;1.76;61.85
84020;BME280;74102;49.084;13.694;2023-12-07T10:05:13;93610.16;;;1.64;61.00
84020;BME280;74102;49.084;13.694;2023-12-07T10:07:49;93590.28;;;1.77;62.17
84020;BME280;74102;49.084;13.694;2023-12-07T10:10:16;93590.19;;;1.90;61.87
84020;BME280;74102;49.084;13.694;2023-12-07T10:12:55;93596.66;;;1.95;61.63
84020;BME280;74102;49.084;13.694;2023-12-07T10:15:22;93593.38;;;2.04;62.12
84020;BME280;74102;49.084;13.694;2023-12-07T10:17:53;93589.88;;;2.05;61.49
84020;BME280;74102;49.084;13.694;2023-12-07T10:20:29;93585.88;;;2.12;60.96
84020;BME280;74102;49.084;13.694;2023-12-07T10:23:05;93589.16;;;2.03;59.55
84020;BME280;74102;49.084;13.694;2023-12-07T10:25:35;93585.88;;;2.01;60.66
84020;BME280;74102;49.084;13.694;2023-12-07T10:28:01;93584.03;;;2.15;60.66
84020;BME280;74102;49.084;13.694;2023-12-07T10:30:29;93580.00;;;2.22;60.80
84020;BME280;74102;49.084;13.694;2023-12-07T10:32:54;93581.19;;;2.29;60.59
84020;BME280;74102;49.084;13.694;2023-12-07T10:35:20;93578.38;;;2.21;60.05
84020;BME280;74102;49.084;13.694;2023-12-07T10:37:46;93571.00;;;2.16;60.96
84020;BME280;74102;49.084;13.694;2023-12-07T10:40:12;93580.00;;;2.22;61.14
84020;BME280;74102;49.084;13.694;2023-12-07T10:42:40;93589.19;;;2.15;60.71
84020;BME280;74102;49.084;13.694;2023-12-07T10:45:06;93578.63;;;2.18;61.50
84020;BME280;74102;49.084;13.694;2023-12-07T10:47:37;93576.25;;;2.26;61.43
84020;BME280;74102;49.084;13.694;2023-12-07T10:50:06;93576.25;;;2.26;61.29
84020;BME280;74102;49.084;13.694;2023-12-07T10:52:45;93578.28;;;2.11;60.32
84020;BME280;74102;49.084;13.694;2023-12-07T10:55:16;93589.16;;;2.03;60.83
84020;BME280;74102;49.084;13.694;2023-12-07T10:57:44;93570.75;;;1.86;61.24
84020;BME280;74102;49.084;13.694;2023-12-07T11:00:10;93575.78;;;1.87;60.56
84020;BME280;74102;49.084;13.694;2023-12-07T11:02:36;93575.78;;;1.98;61.29
84020;BME280;74102;49.084;13.694;2023-12-07T11:05:03;93573.22;;;1.98;58.87
84020;BME280;74102;49.084;13.694;2023-12-07T11:07:51;93575.44;;;1.92;59.00
84020;BME280;74102;49.084;13.694;2023-12-07T11:10:31;93571.16;;;1.69;58.15
84020;BME280;74102;49.084;13.694;2023-12-07T11:13:12;93567.75;;;1.57;58.36
84020;BME280;74102;49.084;13.694;2023-12-07T11:15:43;93567.53;;;1.60;59.35
84020;BME280;74102;49.084;13.694;2023-12-07T11:18:08;93569.28;;;1.71;58.05
84020;BME280;74102;49.084;13.694;2023-12-07T11:20:44;93573.56;;;1.83;57.69
84020;BME280;74102;49.084;13.694;2023-12-07T11:23:11;93572.81;;;1.81;57.43
84020;BME280;74102;49.084;13.694;2023-12-07T11:25:37;93568.84;;;1.88;58.00
84020;BME280;74102;49.084;13.694;2023-12-07T11:28:04;93570.28;;;2.03;57.96
84020;BME280;74102;49.084;13.694;2023-12-07T11:30:31;93568.28;;;2.06;56.09
84020;BME280;74102;49.084;13.694;2023-12-07T11:32:57;93569.44;;;2.02;56.32
84020;BME280;74102;49.084;13.694;2023-12-07T11:35:22;93565.00;;;2.04;57.74
84020;BME280;74102;49.084;13.694;2023-12-07T11:40:29;93567.34;;;1.96;57.81
84020;BME280;74102;49.084;13.694;2023-12-07T11:42:55;93565.22;;;1.90;57.57
84020;BME280;74102;49.084;13.694;2023-12-07T11:45:48;93565.91;;;1.81;57.99
84020;BME280;74102;49.084;13.694;2023-12-07T11:48:19;93562.41;;;1.82;58.04
84020;BME280;74102;49.084;13.694;2023-12-07T11:50:55;93556.44;;;1.82;58.32
84020;BME280;74102;49.084;13.694;2023-12-07T11:53:22;93555.97;;;1.88;58.03
84020;BME280;74102;49.084;13.694;2023-12-07T11:55:48;93564.28;;;2.02;58.54
84020;BME280;74102;49.084;13.694;2023-12-07T11:58:14;93559.97;;;2.03;57.30
84020;BME280;74102;49.084;13.694;2023-12-07T12:00:39;93557.88;;;2.08;57.63
84020;BME280;74102;49.084;13.694;2023-12-07T12:03:05;93553.66;;;2.18;58.23
84020;BME280;74102;49.084;13.694;2023-12-07T12:05:31;93560.31;;;2.32;57.71
84020;BME280;74102;49.084;13.694;2023-12-07T12:07:56;93560.34;;;2.21;56.41
84020;BME280;74102;49.084;13.694;2023-12-07T12:10:22;93566.88;;;2.13;57.26
84020;BME280;74102;49.084;13.694;2023-12-07T12:12:51;93553.31;;;2.11;57.87
84020;BME280;74102;49.084;13.694;2023-12-07T12:15:16;93552.47;;;2.11;57.88
84020;BME280;74102;49.084;13.694;2023-12-07T12:17:42;93547.41;;;2.09;58.08
84020;BME280;74102;49.084;13.694;2023-12-07T12:20:09;93547.06;;;2.03;57.59
84020;BME280;74102;49.084;13.694;2023-12-07T12:22:38;93557.59;;;2.00;58.17
84020;BME280;74102;49.084;13.694;2023-12-07T12:25:04;93556.09;;;1.97;58.39
84020;BME280;74102;49.084;13.694;2023-12-07T12:27:30;93556.31;;;1.94;58.59
84020;BME280;74102;49.084;13.694;2023-12-07T12:29:56;93556.06;;;1.86;58.96
84020;BME280;74102;49.084;13.694;2023-12-07T12:32:23;93556.19;;;1.85;58.18
84020;BME280;74102;49.084;13.694;2023-12-07T12:34:52;93559.25;;;1.79;59.27
84020;BME280;74102;49.084;13.694;2023-12-07T12:37:17;93555.69;;;1.69;59.22
84020;BME280;74102;49.084;13.694;2023-12-07T12:39:43;93557.81;;;1.64;59.45
84020;BME280;74102;49.084;13.694;2023-12-07T12:42:08;93565.28;;;1.55;60.32
84020;BME280;74102;49.084;13.694;2023-12-07T12:44:36;93565.13;;;1.46;60.08
84020;BME280;74102;49.084;13.694;2023-12-07T12:47:06;93561.13;;;1.42;60.64
84020;BME280;74102;49.084;13.694;2023-12-07T12:49:36;93570.28;;;1.46;60.88
84020;BME280;74102;49.084;13.694;2023-12-07T12:52:01;93559.97;;;1.46;60.92
84020;BME280;74102;49.084;13.694;2023-12-07T12:54:33;93561.34;;;1.39;60.55
84020;BME280;74102;49.084;13.694;2023-12-07T12:56:58;93548.69;;;1.36;61.06
84020;BME280;74102;49.084;13.694;2023-12-07T12:59:24;93554.34;;;1.41;61.43